Seabourn Legend — C6FR6 — position and weather

sailwx.info

Track history (hours):
 
Tides and Currents Weather Stations Pressure Air Temp Water Temp Dewpoint Dewpoint Depression Visibility Wind Speed Wind Dir Waves Ship Positions

Seabourn Legend

Operator: Cunard Seabourn

Last reported at 2020-Jan-25 03:30 UTC. Time now 2020-Jan-25 06:03 UTC.
Position N 18°11' W 064°46'.

Length 135 m; draft 5.5 m.

Type: Passenger vessel. MMSI: 311085000.

Date/timePositionNaut miles runAvg speedWind from/ knotsBaromVisibWave heightAir tempDewpointWater temp
2020-Jan-25 03:30N 18°11' W 064°46'9413.3
2020-Jan-24 20:27N 17°60' W 063°07'410.2
2020-Jan-24 20:01N 18°01' W 063°03'0 0.0
2020-Jan-24 19:30N 18°01' W 063°03'0 0.0
2020-Jan-24 15:55N 18°01' W 063°03'0 0.0
2020-Jan-24 14:58N 18°01' W 063°03'0 0.0
2020-Jan-24 13:57N 18°01' W 063°03'0 0.0
2020-Jan-24 11:46N 18°01' W 063°03'4 3.8
2020-Jan-24 10:48N 17°58' W 063°05'812.4
2020-Jan-24 10:10N 17°50' W 063°06'312.4
2020-Jan-24 09:58N 17°48' W 063°06'24 9.8
2020-Jan-24 07:30N 17°24' W 063°03'1011.0
2020-Jan-24 06:38N 17°16' W 062°57'10812.5
2020-Jan-23 22:00N 15°54' W 061°45'9 1.1
2020-Jan-23 13:49N 15°52' W 061°35'  
2020-Jan-19 04:27N 18°08' W 065°09'1313.6
2020-Jan-19 03:30N 18°21' W 065°12'52 9.4
2020-Jan-18 21:58N 18°28' W 066°07'0 0.0
2020-Jan-18 21:28N 18°28' W 066°07'0 0.0
2020-Jan-18 20:28N 18°28' W 066°07'0 0.0
2020-Jan-18 19:28N 18°28' W 066°07'0 0.0
2020-Jan-18 17:58N 18°28' W 066°07'0 0.0
2020-Jan-18 17:28N 18°28' W 066°07'0 0.0
2020-Jan-18 16:28N 18°28' W 066°07'0 0.0
2020-Jan-18 15:11N 18°28' W 066°07'0 0.3
2020-Jan-18 14:59N 18°28' W 066°07'0 0.0
2020-Jan-18 13:15N 18°28' W 066°07'2 0.7
2020-Jan-18 10:30N 18°29' W 066°08'611.1
2020-Jan-18 10:01N 18°30' W 066°02'4813.8
2020-Jan-18 06:30N 18°23' W 065°12'714.9
2020-Jan-18 06:00N 18°18' W 065°06'124 5.8
2020-Jan-17 08:28N 17°40' W 063°01'11 7.0
2020-Jan-17 06:56N 17°30' W 063°06'15 7.5
2020-Jan-17 04:58N 17°18' W 062°56'34 7.4
2020-Jan-17 00:27N 16°53' W 062°33'2 0.2
2020-Jan-16 09:09N 16°55' W 062°34'6 9.1
2020-Jan-16 08:29N 16°59' W 062°39'4310.7
2020-Jan-16 04:30N 17°31' W 063°08'612.0
2020-Jan-16 03:58N 17°37' W 063°10'611.4
2020-Jan-16 03:28N 17°42' W 063°14'1212.7
2020-Jan-16 02:30N 17°47' W 063°25'1313.3
2020-Jan-16 01:30N 17°55' W 063°37'70 4.0
2020-Jan-15 08:09N 18°41' W 064°32'19 6.1
2020-Jan-15 05:01N 18°42' W 064°52'11 7.0
2020-Jan-15 03:31N 18°32' W 064°52'  
Track history (hours):
 
Tides and Currents Weather Stations Pressure Air Temp Water Temp Dewpoint Dewpoint Depression Visibility Wind Speed Wind Dir Waves Ship Positions

Seabourn Legend

Operator: Cunard Seabourn

Last reported at 2020-Jan-25 03:30 UTC. Time now 2020-Jan-25 06:03 UTC.
Position N 18°11' W 064°46'.

Length 135 m; draft 5.5 m.

Type: Passenger vessel. MMSI: 311085000.

Date/timePositionNaut miles runAvg speedWind from/ knotsBaromVisibWave heightAir tempDewpointWater temp
2020-Jan-25 03:30N 18°11' W 064°46'9413.3
2020-Jan-24 20:27N 17°60' W 063°07'410.2
2020-Jan-24 20:01N 18°01' W 063°03'0 0.0
2020-Jan-24 19:30N 18°01' W 063°03'0 0.0
2020-Jan-24 15:55N 18°01' W 063°03'0 0.0
2020-Jan-24 14:58N 18°01' W 063°03'0 0.0
2020-Jan-24 13:57N 18°01' W 063°03'0 0.0
2020-Jan-24 11:46N 18°01' W 063°03'4 3.8
2020-Jan-24 10:48N 17°58' W 063°05'812.4
2020-Jan-24 10:10N 17°50' W 063°06'312.4
2020-Jan-24 09:58N 17°48' W 063°06'24 9.8
2020-Jan-24 07:30N 17°24' W 063°03'1011.0
2020-Jan-24 06:38N 17°16' W 062°57'10812.5
2020-Jan-23 22:00N 15°54' W 061°45'9 1.1
2020-Jan-23 13:49N 15°52' W 061°35'  
2020-Jan-19 04:27N 18°08' W 065°09'1313.6
2020-Jan-19 03:30N 18°21' W 065°12'52 9.4
2020-Jan-18 21:58N 18°28' W 066°07'0 0.0
2020-Jan-18 21:28N 18°28' W 066°07'0 0.0
2020-Jan-18 20:28N 18°28' W 066°07'0 0.0
2020-Jan-18 19:28N 18°28' W 066°07'0 0.0
2020-Jan-18 17:58N 18°28' W 066°07'0 0.0
2020-Jan-18 17:28N 18°28' W 066°07'0 0.0
2020-Jan-18 16:28N 18°28' W 066°07'0 0.0
2020-Jan-18 15:11N 18°28' W 066°07'0 0.3
2020-Jan-18 14:59N 18°28' W 066°07'0 0.0
2020-Jan-18 13:15N 18°28' W 066°07'2 0.7
2020-Jan-18 10:30N 18°29' W 066°08'611.1
2020-Jan-18 10:01N 18°30' W 066°02'4813.8
2020-Jan-18 06:30N 18°23' W 065°12'714.9
2020-Jan-18 06:00N 18°18' W 065°06'124 5.8
2020-Jan-17 08:28N 17°40' W 063°01'11 7.0
2020-Jan-17 06:56N 17°30' W 063°06'15 7.5
2020-Jan-17 04:58N 17°18' W 062°56'34 7.4
2020-Jan-17 00:27N 16°53' W 062°33'2 0.2
2020-Jan-16 09:09N 16°55' W 062°34'6 9.1
2020-Jan-16 08:29N 16°59' W 062°39'4310.7
2020-Jan-16 04:30N 17°31' W 063°08'612.0
2020-Jan-16 03:58N 17°37' W 063°10'611.4
2020-Jan-16 03:28N 17°42' W 063°14'1212.7
2020-Jan-16 02:30N 17°47' W 063°25'1313.3
2020-Jan-16 01:30N 17°55' W 063°37'70 4.0
2020-Jan-15 08:09N 18°41' W 064°32'19 6.1
2020-Jan-15 05:01N 18°42' W 064°52'11 7.0
2020-Jan-15 03:31N 18°32' W 064°52'  

Dump ship's entire track history